Time;durP1;ratioP1;P1;durP2;ratioP2;P2;SDS_P1;SDS_P2;PMS_P1;PMS_P2;Temp;Humidity;BMP_temperature;BMP_pressure;BME280_temperature;BME280_humidity;BME280_pressure;Samples;Min_cycle;Max_cycle;Signal;HPM_P1;HPM_P2
2023/07/05 00:00:52;;;;;;;10.27;2.67;;;;;;;;;;4897168;29;20044;-60
2023/07/05 00:03:18;;;;;;;10.40;3.13;;;;;;;;;;4897229;29;21203;-60
2023/07/05 00:05:44;;;;;;;10.80;3.65;;;;;;;;;;4896982;29;20039;-60
2023/07/05 00:08:10;;;;;;;10.50;3.20;;;;;;;;;;4897621;29;20519;-60
2023/07/05 00:10:36;;;;;;;10.23;3.75;;;;;;;;;;4897890;29;20100;-61
2023/07/05 00:13:03;;;;;;;11.63;3.33;;;;;;;;;;4897167;29;20041;-60
2023/07/05 00:15:30;;;;;;;8.80;3.50;;;;;;;;;;4896698;29;20039;-60
2023/07/05 00:17:56;;;;;;;11.45;3.25;;;;;;;;;;4896369;29;20036;-61
2023/07/05 00:20:23;;;;;;;8.98;3.20;;;;;;;;;;4896503;29;20119;-61
2023/07/05 00:22:49;;;;;;;8.50;3.58;;;;;;;;;;4897061;29;20454;-60
2023/07/05 00:25:15;;;;;;;10.07;3.53;;;;;;;;;;4899092;29;20446;-60
2023/07/05 00:27:42;;;;;;;10.27;3.67;;;;;;;;;;4900329;29;20039;-60
2023/07/05 00:30:08;;;;;;;9.52;4.10;;;;;;;;;;4900863;29;20590;-60
2023/07/05 00:32:34;;;;;;;9.73;3.47;;;;;;;;;;4900978;29;20036;-60
2023/07/05 00:35:00;;;;;;;10.68;3.90;;;;;;;;;;4883482;29;20035;-61
2023/07/05 00:37:26;;;;;;;12.55;4.57;;;;;;;;;;4900439;29;20039;-61
2023/07/05 00:39:53;;;;;;;9.52;3.83;;;;;;;;;;4899578;29;20147;-60
2023/07/05 00:42:19;;;;;;;11.18;4.05;;;;;;;;;;4900963;29;20032;-60
2023/07/05 00:45:11;;;;;;;11.70;4.03;;;;;;;;;;4900169;29;20146;-61
2023/07/05 00:47:40;;;;;;;11.77;4.00;;;;;;;;;;4873861;29;20928;-61
2023/07/05 00:50:27;;;;;;;8.20;3.20;;;;;;;;;;4899817;29;20736;-60
2023/07/05 00:52:54;;;;;;;9.20;3.20;;;;;;;;;;4900111;29;20046;-60
2023/07/05 00:55:20;;;;;;;11.38;3.80;;;;;;;;;;4899864;29;20040;-60
2023/07/05 00:57:46;;;;;;;11.18;4.18;;;;;;;;;;4899781;29;20072;-60
2023/07/05 01:00:15;;;;;;;8.70;3.58;;;;;;;;;;4900037;29;20027;-60
2023/07/05 01:02:41;;;;;;;6.95;3.53;;;;;;;;;;4900070;29;20035;-60
2023/07/05 01:05:11;;;;;;;12.63;4.18;;;;;;;;;;4899794;29;20999;-60
2023/07/05 01:07:37;;;;;;;11.05;3.88;;;;;;;;;;4899609;29;20050;-60
2023/07/05 01:10:03;;;;;;;10.68;3.97;;;;;;;;;;4900123;29;20070;-60
2023/07/05 01:12:38;;;;;;;13.02;3.97;;;;;;;;;;4899652;29;20047;-60
2023/07/05 01:15:27;;;;;;;11.30;3.90;;;;;;;;;;4899271;29;20194;-60
2023/07/05 01:18:04;;;;;;;9.07;4.22;;;;;;;;;;4881862;29;20714;-60
2023/07/05 01:20:33;;;;;;;14.90;4.22;;;;;;;;;;4899649;29;20036;-60
2023/07/05 01:23:07;;;;;;;8.57;3.78;;;;;;;;;;4899250;29;20028;-60
2023/07/05 01:25:36;;;;;;;12.52;4.47;;;;;;;;;;4898974;29;20055;-60
2023/07/05 01:28:20;;;;;;;10.65;4.50;;;;;;;;;;4898987;29;20624;-60
2023/07/05 01:31:01;;;;;;;14.57;4.43;;;;;;;;;;4898889;29;20038;-61
2023/07/05 01:33:37;;;;;;;10.43;4.53;;;;;;;;;;4899384;29;20043;-61
2023/07/05 01:36:03;;;;;;;7.78;4.13;;;;;;;;;;4897823;29;20044;-61
2023/07/05 01:38:29;;;;;;;9.32;4.78;;;;;;;;;;4898994;29;20036;-61
2023/07/05 01:40:57;;;;;;;13.00;4.85;;;;;;;;;;4899545;29;20134;-61
2023/07/05 01:43:24;;;;;;;12.52;4.97;;;;;;;;;;4899346;29;20487;-61
2023/07/05 01:46:09;;;;;;;12.30;4.63;;;;;;;;;;4899968;29;20503;-61
2023/07/05 01:48:37;;;;;;;14.82;5.25;;;;;;;;;;4898807;29;20096;-61
2023/07/05 01:51:03;;;;;;;13.93;6.25;;;;;;;;;;4898687;29;20040;-62
2023/07/05 01:53:32;;;;;;;12.30;5.38;;;;;;;;;;4898455;29;20187;-63
2023/07/05 01:56:05;;;;;;;12.25;5.78;;;;;;;;;;4899167;29;20066;-62
2023/07/05 01:58:33;;;;;;;14.40;6.70;;;;;;;;;;4899179;29;20040;-62
2023/07/05 02:01:00;;;;;;;10.85;5.80;;;;;;;;;;4898627;29;20044;-62
2023/07/05 02:03:26;;;;;;;13.15;6.15;;;;;;;;;;4898666;29;20032;-62
2023/07/05 02:05:53;;;;;;;13.05;6.03;;;;;;;;;;4897463;29;20024;-62
2023/07/05 02:08:24;;;;;;;14.52;6.47;;;;;;;;;;4897220;29;20633;-62
2023/07/05 02:10:50;;;;;;;12.70;7.20;;;;;;;;;;4896321;29;20035;-62
2023/07/05 02:13:18;;;;;;;12.88;6.22;;;;;;;;;;4897106;29;20047;-62
2023/07/05 02:15:46;;;;;;;13.77;6.70;;;;;;;;;;4896709;29;20044;-62
2023/07/05 02:18:12;;;;;;;14.75;6.90;;;;;;;;;;4897546;29;20042;-63
2023/07/05 02:20:38;;;;;;;14.85;7.22;;;;;;;;;;4896200;29;20122;-62
2023/07/05 02:23:04;;;;;;;12.13;7.30;;;;;;;;;;4896260;29;20070;-62
2023/07/05 02:25:31;;;;;;;16.02;7.85;;;;;;;;;;4897819;29;20739;-63
2023/07/05 02:27:57;;;;;;;16.33;7.88;;;;;;;;;;4897389;29;20036;-62
2023/07/05 02:30:26;;;;;;;16.45;8.02;;;;;;;;;;4895691;29;20047;-62
2023/07/05 02:32:52;;;;;;;13.55;7.30;;;;;;;;;;4895941;29;20099;-62
2023/07/05 02:35:18;;;;;;;15.30;7.07;;;;;;;;;;4896184;29;20576;-62
2023/07/05 02:37:44;;;;;;;14.20;7.05;;;;;;;;;;4895812;29;20625;-62
2023/07/05 02:40:11;;;;;;;18.92;8.27;;;;;;;;;;4895929;29;20074;-62
2023/07/05 02:42:37;;;;;;;16.40;7.93;;;;;;;;;;4896171;29;20040;-62
2023/07/05 02:45:03;;;;;;;13.38;8.00;;;;;;;;;;4895781;29;20502;-62
2023/07/05 02:47:29;;;;;;;14.70;8.02;;;;;;;;;;4895909;29;21004;-61
2023/07/05 02:49:55;;;;;;;17.65;8.50;;;;;;;;;;4896441;29;20036;-62
2023/07/05 02:52:21;;;;;;;15.75;8.80;;;;;;;;;;4897103;29;20035;-62
2023/07/05 02:54:47;;;;;;;15.20;9.00;;;;;;;;;;4897202;29;20048;-62
2023/07/05 02:57:13;;;;;;;14.55;8.43;;;;;;;;;;4897818;29;20098;-61
2023/07/05 02:59:39;;;;;;;17.38;9.52;;;;;;;;;;4897458;29;20086;-62
2023/07/05 03:02:05;;;;;;;23.50;10.68;;;;;;;;;;4897380;29;20736;-62
2023/07/05 03:04:31;;;;;;;15.60;9.88;;;;;;;;;;4898130;29;20040;-61
2023/07/05 03:06:57;;;;;;;20.10;10.90;;;;;;;;;;4897945;29;20036;-62
2023/07/05 03:09:23;;;;;;;15.82;11.10;;;;;;;;;;4897825;29;20118;-61
2023/07/05 03:11:49;;;;;;;23.48;10.75;;;;;;;;;;4897563;29;20051;-61
2023/07/05 03:14:15;;;;;;;19.35;10.00;;;;;;;;;;4896900;29;20047;-61
2023/07/05 03:16:42;;;;;;;19.48;10.15;;;;;;;;;;4898187;29;20044;-62
2023/07/05 03:19:08;;;;;;;23.33;12.93;;;;;;;;;;4896743;29;20048;-63
2023/07/05 03:21:34;;;;;;;17.63;11.15;;;;;;;;;;4897037;29;20036;-64
2023/07/05 03:24:00;;;;;;;20.38;10.93;;;;;;;;;;4897703;29;20064;-63
2023/07/05 03:26:26;;;;;;;17.42;11.15;;;;;;;;;;4897129;29;20119;-64
2023/07/05 03:28:52;;;;;;;23.77;11.65;;;;;;;;;;4897524;29;20040;-63
2023/07/05 03:31:18;;;;;;;18.75;11.23;;;;;;;;;;4896726;29;20945;-63
2023/07/05 03:33:45;;;;;;;18.60;11.13;;;;;;;;;;4897724;29;21120;-64
2023/07/05 03:36:12;;;;;;;14.27;10.30;;;;;;;;;;4897570;29;20054;-64
2023/07/05 03:38:38;;;;;;;18.30;11.07;;;;;;;;;;4897377;29;20046;-62
2023/07/05 03:41:18;;;;;;;19.65;11.07;;;;;;;;;;4897154;29;21579;-62
2023/07/05 03:43:48;;;;;;;17.70;11.05;;;;;;;;;;4896768;29;20023;-63
2023/07/05 03:46:15;;;;;;;21.05;10.75;;;;;;;;;;4897140;29;20040;-63
2023/07/05 03:48:42;;;;;;;14.07;10.10;;;;;;;;;;4897360;29;20060;-64
2023/07/05 03:51:10;;;;;;;19.13;10.82;;;;;;;;;;4897136;29;21869;-64
2023/07/05 03:53:36;;;;;;;17.60;10.70;;;;;;;;;;4896734;29;20039;-66
2023/07/05 03:56:04;;;;;;;15.80;10.18;;;;;;;;;;4897744;29;20035;-66
2023/07/05 03:58:30;;;;;;;18.60;11.02;;;;;;;;;;4896562;29;20511;-67
2023/07/05 04:01:07;;;;;;;14.80;10.73;;;;;;;;;;4900246;29;20036;-67
2023/07/05 04:03:33;;;;;;;16.92;10.63;;;;;;;;;;4900324;29;20031;-66
2023/07/05 04:06:00;;;;;;;17.33;10.07;;;;;;;;;;4900623;29;20028;-66
2023/07/05 04:08:26;;;;;;;12.82;9.65;;;;;;;;;;4900739;29;20150;-66
2023/07/05 04:10:52;;;;;;;15.50;9.35;;;;;;;;;;4901182;29;20118;-66
2023/07/05 04:13:19;;;;;;;16.73;9.65;;;;;;;;;;4901072;29;21120;-66
2023/07/05 04:15:45;;;;;;;19.92;10.07;;;;;;;;;;4900374;29;20554;-64
2023/07/05 04:18:11;;;;;;;14.10;8.77;;;;;;;;;;4900403;29;20483;-64
2023/07/05 04:20:37;;;;;;;13.32;8.63;;;;;;;;;;4900317;29;20035;-64
2023/07/05 04:23:03;;;;;;;12.20;8.45;;;;;;;;;;4899998;29;20031;-64
2023/07/05 04:25:29;;;;;;;14.20;8.63;;;;;;;;;;4899770;29;20060;-64
2023/07/05 04:27:55;;;;;;;12.60;8.68;;;;;;;;;;4900343;29;20044;-64
2023/07/05 04:30:21;;;;;;;16.65;8.77;;;;;;;;;;4899806;29;20050;-64
2023/07/05 04:32:47;;;;;;;12.50;8.00;;;;;;;;;;4899988;29;20623;-64
2023/07/05 04:35:14;;;;;;;13.32;8.15;;;;;;;;;;4900161;29;20039;-64
2023/07/05 04:37:40;;;;;;;13.40;8.18;;;;;;;;;;4899976;29;20119;-64
2023/07/05 04:40:06;;;;;;;13.60;9.10;;;;;;;;;;4899801;29;20075;-63
2023/07/05 04:42:32;;;;;;;13.90;8.50;;;;;;;;;;4900754;29;20480;-63
2023/07/05 04:44:58;;;;;;;11.68;7.93;;;;;;;;;;4900207;29;20051;-65
2023/07/05 04:47:24;;;;;;;19.77;8.50;;;;;;;;;;4900729;29;20200;-64
2023/07/05 04:49:50;;;;;;;13.20;7.57;;;;;;;;;;4900295;29;20036;-64
2023/07/05 04:52:16;;;;;;;12.48;7.45;;;;;;;;;;4899415;29;20044;-64
2023/07/05 04:54:42;;;;;;;9.48;6.03;;;;;;;;;;4899588;29;20032;-64
2023/07/05 04:57:08;;;;;;;10.77;6.30;;;;;;;;;;4900033;29;20511;-64
2023/07/05 04:59:34;;;;;;;11.70;6.15;;;;;;;;;;4899194;29;20046;-64
2023/07/05 05:02:02;;;;;;;9.55;5.60;;;;;;;;;;4903918;29;20491;-64
2023/07/05 05:04:28;;;;;;;10.32;5.88;;;;;;;;;;4904354;29;20040;-64
2023/07/05 05:06:55;;;;;;;13.18;6.03;;;;;;;;;;4904035;29;20040;-64
2023/07/05 05:09:21;;;;;;;11.52;5.35;;;;;;;;;;4904013;29;20040;-64
2023/07/05 05:11:47;;;;;;;10.45;5.53;;;;;;;;;;4903486;29;20040;-65
2023/07/05 05:14:13;;;;;;;16.25;5.25;;;;;;;;;;4902716;29;20165;-64
2023/07/05 05:16:39;;;;;;;7.75;4.35;;;;;;;;;;4904115;29;20146;-64
2023/07/05 05:19:05;;;;;;;9.65;4.20;;;;;;;;;;4903903;29;20147;-63
2023/07/05 05:21:31;;;;;;;6.93;3.72;;;;;;;;;;4904133;29;20047;-63
2023/07/05 05:23:57;;;;;;;6.70;3.60;;;;;;;;;;4903287;29;20062;-63
2023/07/05 05:26:23;;;;;;;6.88;3.78;;;;;;;;;;4902619;29;20094;-63
2023/07/05 05:28:49;;;;;;;14.85;5.72;;;;;;;;;;4904063;29;20169;-64
2023/07/05 05:31:15;;;;;;;7.35;3.95;;;;;;;;;;4903157;29;20432;-64
2023/07/05 05:33:41;;;;;;;8.43;4.25;;;;;;;;;;4904267;29;20825;-65
2023/07/05 05:36:07;;;;;;;8.95;4.60;;;;;;;;;;4903196;29;20130;-65
2023/07/05 05:38:34;;;;;;;11.23;4.45;;;;;;;;;;4903348;29;20062;-65
2023/07/05 05:41:02;;;;;;;7.38;4.20;;;;;;;;;;4903488;29;20064;-65
2023/07/05 05:43:28;;;;;;;11.27;4.38;;;;;;;;;;4902128;29;20024;-64
2023/07/05 05:45:54;;;;;;;7.30;5.07;;;;;;;;;;4902507;29;20040;-64
2023/07/05 05:48:20;;;;;;;9.23;4.90;;;;;;;;;;4902893;29;20513;-64
2023/07/05 05:50:47;;;;;;;10.55;5.28;;;;;;;;;;4903070;29;21780;-63
2023/07/05 05:53:13;;;;;;;10.13;4.60;;;;;;;;;;4902343;29;20054;-63
2023/07/05 05:55:40;;;;;;;8.60;4.25;;;;;;;;;;4903504;29;20035;-63
2023/07/05 05:58:06;;;;;;;8.25;4.60;;;;;;;;;;4903649;29;20032;-63
2023/07/05 06:00:33;;;;;;;7.78;4.78;;;;;;;;;;4902307;29;20044;-63
2023/07/05 06:02:59;;;;;;;7.38;4.53;;;;;;;;;;4903117;29;20138;-63
2023/07/05 06:05:25;;;;;;;7.65;4.07;;;;;;;;;;4903575;29;20111;-65
2023/07/05 06:07:51;;;;;;;7.63;4.53;;;;;;;;;;4903688;29;20063;-64
2023/07/05 06:10:17;;;;;;;9.75;4.90;;;;;;;;;;4902461;29;20384;-64
2023/07/05 06:12:43;;;;;;;8.68;4.25;;;;;;;;;;4903553;29;20118;-64
2023/07/05 06:15:11;;;;;;;8.57;4.18;;;;;;;;;;4902587;29;20118;-64
2023/07/05 06:17:37;;;;;;;8.02;4.25;;;;;;;;;;4902060;29;20032;-64
2023/07/05 06:20:05;;;;;;;10.60;4.15;;;;;;;;;;4886462;29;20375;-63
2023/07/05 06:22:32;;;;;;;7.03;3.45;;;;;;;;;;4902031;29;20058;-63
2023/07/05 06:24:58;;;;;;;8.30;3.60;;;;;;;;;;4901843;29;20036;-64
2023/07/05 06:27:24;;;;;;;13.43;4.22;;;;;;;;;;4902593;29;20048;-62
2023/07/05 06:29:50;;;;;;;7.40;3.38;;;;;;;;;;4890107;29;20044;-63
2023/07/05 06:32:16;;;;;;;6.88;3.80;;;;;;;;;;4892758;29;20042;-63
2023/07/05 06:34:42;;;;;;;7.68;3.90;;;;;;;;;;4892577;29;20039;-64
2023/07/05 06:37:08;;;;;;;8.20;3.47;;;;;;;;;;4892157;29;20037;-64
2023/07/05 06:39:34;;;;;;;10.25;4.00;;;;;;;;;;4893192;29;20045;-64
2023/07/05 06:42:00;;;;;;;7.82;3.55;;;;;;;;;;4895695;29;20118;-64
2023/07/05 06:44:26;;;;;;;10.65;3.55;;;;;;;;;;4895414;29;20027;-64
2023/07/05 06:46:52;;;;;;;8.80;3.08;;;;;;;;;;4894474;29;20035;-64
2023/07/05 06:49:19;;;;;;;6.47;3.53;;;;;;;;;;4895030;29;20051;-64
2023/07/05 06:51:45;;;;;;;7.63;3.72;;;;;;;;;;4895773;29;20403;-64
2023/07/05 06:54:11;;;;;;;7.40;3.40;;;;;;;;;;4895531;29;20043;-64
2023/07/05 06:56:37;;;;;;;6.07;3.08;;;;;;;;;;4894872;29;20036;-64
2023/07/05 06:59:03;;;;;;;8.32;2.92;;;;;;;;;;4895055;29;20987;-64
2023/07/05 07:01:29;;;;;;;7.90;3.33;;;;;;;;;;4894581;29;20046;-66
2023/07/05 07:03:55;;;;;;;5.50;3.00;;;;;;;;;;4895474;29;20035;-66
2023/07/05 07:06:21;;;;;;;5.45;2.70;;;;;;;;;;4895160;29;20571;-66
2023/07/05 07:08:47;;;;;;;8.65;3.33;;;;;;;;;;4894721;29;20048;-66
2023/07/05 07:11:13;;;;;;;8.15;3.08;;;;;;;;;;4894984;29;20047;-66
2023/07/05 07:13:40;;;;;;;6.13;3.13;;;;;;;;;;4894633;29;21551;-66
2023/07/05 07:16:10;;;;;;;7.47;3.03;;;;;;;;;;4894163;29;20521;-66
2023/07/05 07:18:37;;;;;;;7.00;3.55;;;;;;;;;;4892927;29;21655;-66
2023/07/05 07:21:03;;;;;;;9.13;3.70;;;;;;;;;;4895226;29;20043;-66
2023/07/05 07:23:29;;;;;;;6.00;3.25;;;;;;;;;;4895466;29;20033;-66
2023/07/05 07:26:03;;;;;;;6.18;2.75;;;;;;;;;;4894194;29;20048;-67
2023/07/05 07:28:30;;;;;;;6.43;3.25;;;;;;;;;;4894214;29;20043;-66
2023/07/05 07:30:56;;;;;;;6.10;3.10;;;;;;;;;;4895173;29;20044;-66
2023/07/05 07:33:23;;;;;;;6.50;3.00;;;;;;;;;;4896913;29;20047;-66
2023/07/05 07:35:49;;;;;;;6.65;2.60;;;;;;;;;;4899672;29;20593;-66
2023/07/05 07:38:16;;;;;;;8.40;2.85;;;;;;;;;;4899477;29;20174;-66
2023/07/05 07:40:42;;;;;;;5.90;2.53;;;;;;;;;;4898880;29;20035;-66
2023/07/05 07:43:08;;;;;;;4.80;2.67;;;;;;;;;;4899095;29;20035;-66
2023/07/05 07:45:34;;;;;;;6.28;2.63;;;;;;;;;;4898183;29;20181;-66
2023/07/05 07:48:00;;;;;;;6.57;2.83;;;;;;;;;;4898819;29;20035;-67
2023/07/05 07:50:27;;;;;;;8.25;2.67;;;;;;;;;;4899323;29;20043;-67
2023/07/05 07:52:53;;;;;;;5.32;2.20;;;;;;;;;;4898585;29;20682;-66
2023/07/05 07:55:19;;;;;;;6.13;2.30;;;;;;;;;;4899180;29;20082;-67
2023/07/05 07:57:45;;;;;;;6.10;2.20;;;;;;;;;;4899226;29;20036;-64
2023/07/05 08:00:12;;;;;;;6.75;2.35;;;;;;;;;;4897625;29;20070;-63
2023/07/05 08:02:38;;;;;;;4.20;1.40;;;;;;;;;;4899052;29;20032;-64
2023/07/05 08:05:12;;;;;;;4.47;1.45;;;;;;;;;;4899765;29;20107;-63
2023/07/05 08:07:38;;;;;;;4.22;1.63;;;;;;;;;;4899476;29;20056;-64
2023/07/05 08:10:04;;;;;;;10.07;1.85;;;;;;;;;;4882496;29;20074;-64
2023/07/05 08:12:30;;;;;;;5.55;2.10;;;;;;;;;;4883347;29;20036;-64
2023/07/05 08:14:56;;;;;;;5.72;1.90;;;;;;;;;;4899354;29;20127;-64
2023/07/05 08:17:22;;;;;;;6.63;1.45;;;;;;;;;;4899180;29;20151;-65
2023/07/05 08:19:49;;;;;;;4.95;1.10;;;;;;;;;;4898597;29;20115;-64
2023/07/05 08:22:15;;;;;;;9.32;1.45;;;;;;;;;;4899180;29;20036;-66
2023/07/05 08:24:41;;;;;;;2.20;1.10;;;;;;;;;;4897942;29;20035;-63
2023/07/05 08:27:07;;;;;;;5.45;1.05;;;;;;;;;;4898669;29;20075;-64
2023/07/05 08:29:33;;;;;;;3.95;1.20;;;;;;;;;;4897263;29;20543;-65
2023/07/05 08:31:59;;;;;;;1.35;0.55;;;;;;;;;;4898686;29;20487;-65
2023/07/05 08:34:25;;;;;;;4.18;0.70;;;;;;;;;;4898364;29;20620;-64
2023/07/05 08:36:51;;;;;;;4.28;1.35;;;;;;;;;;4898592;29;20157;-63
2023/07/05 08:39:18;;;;;;;4.35;0.70;;;;;;;;;;4897000;29;20268;-63
2023/07/05 08:41:44;;;;;;;2.28;0.60;;;;;;;;;;4898051;29;20036;-64
2023/07/05 08:44:19;;;;;;;5.70;0.90;;;;;;;;;;4896960;29;20110;-64
2023/07/05 08:46:48;;;;;;;1.92;0.60;;;;;;;;;;4879662;29;20039;-62
2023/07/05 08:49:26;;;;;;;2.35;0.95;;;;;;;;;;4896522;29;20083;-62
2023/07/05 08:51:52;;;;;;;2.42;0.70;;;;;;;;;;4896718;29;20055;-63
2023/07/05 08:54:18;;;;;;;4.80;0.90;;;;;;;;;;4894347;29;20059;-63
2023/07/05 08:56:47;;;;;;;2.53;0.73;;;;;;;;;;4882008;29;20424;-63
2023/07/05 08:59:18;;;;;;;2.20;0.70;;;;;;;;;;4896397;29;20032;-63
2023/07/05 09:01:45;;;;;;;4.32;0.82;;;;;;;;;;4896607;29;20032;-61
2023/07/05 09:04:19;;;;;;;5.47;1.17;;;;;;;;;;4896690;29;20047;-62
2023/07/05 09:06:52;;;;;;;2.60;1.10;;;;;;;;;;4896636;29;20028;-62
2023/07/05 09:09:30;;;;;;;3.17;0.90;;;;;;;;;;4896734;29;20075;-64
2023/07/05 09:12:03;;;;;;;4.15;1.30;;;;;;;;;;4897026;29;20070;-65
2023/07/05 09:14:41;;;;;;;4.43;1.50;;;;;;;;;;4898855;29;20124;-68
2023/07/05 09:17:16;;;;;;;4.22;1.13;;;;;;;;;;4896964;29;20039;-67
2023/07/05 09:19:49;;;;;;;6.20;1.38;;;;;;;;;;4899512;29;20039;-64
2023/07/05 09:22:17;;;;;;;7.50;1.73;;;;;;;;;;4899527;29;20126;-64
2023/07/05 09:24:45;;;;;;;8.45;1.52;;;;;;;;;;4898904;29;20804;-65
2023/07/05 09:27:16;;;;;;;8.82;1.42;;;;;;;;;;4899230;29;20067;-63
2023/07/05 09:29:51;;;;;;;8.68;1.40;;;;;;;;;;4897147;29;20158;-63
2023/07/05 09:32:19;;;;;;;5.78;1.40;;;;;;;;;;4898092;29;20028;-63
2023/07/05 09:34:48;;;;;;;6.18;1.00;;;;;;;;;;4897588;29;20064;-64
2023/07/05 09:37:19;;;;;;;6.75;0.82;;;;;;;;;;4897248;29;20051;-63
2023/07/05 09:39:59;;;;;;;7.25;0.90;;;;;;;;;;4894934;29;20032;-63
2023/07/05 09:42:32;;;;;;;4.97;1.13;;;;;;;;;;4896235;29;22003;-60
2023/07/05 09:44:58;;;;;;;5.82;0.90;;;;;;;;;;4895108;29;20483;-60
2023/07/05 09:47:24;;;;;;;5.75;1.33;;;;;;;;;;4894961;29;20513;-60
2023/07/05 09:49:50;;;;;;;6.00;0.52;;;;;;;;;;4894502;29;20040;-60
2023/07/05 09:52:18;;;;;;;7.72;0.70;;;;;;;;;;4895352;29;20089;-60
2023/07/05 09:54:45;;;;;;;4.70;0.60;;;;;;;;;;4896430;29;20906;-60
2023/07/05 09:57:12;;;;;;;5.22;1.15;;;;;;;;;;4895780;29;20127;-60
2023/07/05 09:59:38;;;;;;;5.00;1.08;;;;;;;;;;4897305;29;20078;-60
2023/07/05 10:02:14;;;;;;;2.72;0.60;;;;;;;;;;4897528;29;21038;-60
2023/07/05 10:04:48;;;;;;;3.03;0.68;;;;;;;;;;4897683;29;20476;-60
2023/07/05 10:07:15;;;;;;;1.27;0.30;;;;;;;;;;4897226;29;20032;-60
2023/07/05 10:09:53;;;;;;;4.68;1.05;;;;;;;;;;4897162;29;21760;-60
2023/07/05 10:12:20;;;;;;;5.20;0.68;;;;;;;;;;4897698;29;20064;-60
2023/07/05 10:14:53;;;;;;;4.60;0.80;;;;;;;;;;4897318;29;20039;-60
2023/07/05 10:17:19;;;;;;;;;;;;;;;;;;4898141;29;20031;-60
2023/07/05 10:19:49;;;;;;;11.27;0.80;;;;;;;;;;4897046;29;19958;-61
2023/07/05 10:22:21;;;;;;;5.57;0.68;;;;;;;;;;4896719;29;20023;-60
2023/07/05 10:24:48;;;;;;;5.72;0.80;;;;;;;;;;4896432;29;20046;-60
2023/07/05 10:27:21;;;;;;;3.33;0.63;;;;;;;;;;4895684;29;20998;-60
2023/07/05 10:29:51;;;;;;;5.15;1.00;;;;;;;;;;4896634;29;20671;-60
2023/07/05 10:32:19;;;;;;;1.60;0.52;;;;;;;;;;4897213;29;20044;-60
2023/07/05 10:34:48;;;;;;;2.28;0.50;;;;;;;;;;4896400;29;20037;-60
2023/07/05 10:37:26;;;;;;;5.88;0.50;;;;;;;;;;4896499;29;20035;-60
2023/07/05 10:39:52;;;;;;;4.03;0.50;;;;;;;;;;4897225;29;20448;-60
2023/07/05 10:42:18;;;;;;;6.70;1.00;;;;;;;;;;4896115;29;20131;-61
2023/07/05 10:44:44;;;;;;;2.17;0.63;;;;;;;;;;4895529;29;20056;-61
2023/07/05 10:47:12;;;;;;;5.20;0.60;;;;;;;;;;4895986;29;20035;-61
2023/07/05 10:49:38;;;;;;;4.15;0.65;;;;;;;;;;4897605;29;20039;-61
2023/07/05 10:52:06;;;;;;;4.80;1.10;;;;;;;;;;4896166;29;20036;-61
2023/07/05 10:54:44;;;;;;;2.78;0.75;;;;;;;;;;4896457;29;20075;-61
2023/07/05 10:57:14;;;;;;;2.63;0.80;;;;;;;;;;4896536;29;20075;-60
2023/07/05 10:59:43;;;;;;;4.55;0.60;;;;;;;;;;4879874;29;20486;-60
2023/07/05 11:02:12;;;;;;;3.25;0.50;;;;;;;;;;4895221;29;20119;-60
2023/07/05 11:04:39;;;;;;;5.75;0.63;;;;;;;;;;4895837;29;20123;-60
2023/07/05 11:07:10;;;;;;;4.43;0.60;;;;;;;;;;4896070;29;20031;-60
2023/07/05 11:09:37;;;;;;;4.43;0.90;;;;;;;;;;4896228;29;20040;-60
2023/07/05 11:12:05;;;;;;;3.95;0.80;;;;;;;;;;4895310;29;20060;-60
2023/07/05 11:14:32;;;;;;;3.55;0.82;;;;;;;;;;4896041;29;20542;-60
2023/07/05 11:16:59;;;;;;;2.65;0.85;;;;;;;;;;4894784;29;21876;-61
2023/07/05 11:19:27;;;;;;;3.25;0.77;;;;;;;;;;4895381;29;20028;-60
2023/07/05 11:21:53;;;;;;;4.25;0.70;;;;;;;;;;4896018;29;20035;-60
2023/07/05 11:24:27;;;;;;;5.72;1.00;;;;;;;;;;4896202;29;20118;-60
2023/07/05 11:26:53;;;;;;;2.78;0.80;;;;;;;;;;4874708;29;20420;-60
2023/07/05 11:29:26;;;;;;;3.83;0.80;;;;;;;;;;4889584;29;20027;-60
2023/07/05 11:31:52;;;;;;;4.57;1.00;;;;;;;;;;4890406;29;20135;-60
2023/07/05 11:34:21;;;;;;;4.00;1.20;;;;;;;;;;4890185;29;20498;-60
2023/07/05 11:36:51;;;;;;;5.13;1.67;;;;;;;;;;4890617;29;20495;-60
2023/07/05 11:39:36;;;;;;;5.53;1.02;;;;;;;;;;4890395;29;20043;-59
2023/07/05 11:42:15;;;;;;;5.45;1.00;;;;;;;;;;4887622;29;20071;-61
2023/07/05 11:44:51;;;;;;;10.32;1.40;;;;;;;;;;4889645;29;20131;-60
2023/07/05 11:47:23;;;;;;;5.50;1.38;;;;;;;;;;4889340;29;20131;-60
2023/07/05 11:50:07;;;;;;;10.07;1.23;;;;;;;;;;4890167;29;20709;-60
2023/07/05 11:52:38;;;;;;;8.48;1.50;;;;;;;;;;4890009;29;20118;-60
2023/07/05 11:55:11;;;;;;;9.02;1.85;;;;;;;;;;4888959;29;20043;-60
2023/07/05 11:57:37;;;;;;;;;;;;;;;;;;4889763;29;20095;-60
2023/07/05 12:00:18;;;;;;;3.08;0.63;;;;;;;;;;4888949;29;20558;-60
2023/07/05 12:02:50;;;;;;;9.35;1.58;;;;;;;;;;4889296;29;20028;-60
2023/07/05 12:05:18;;;;;;;8.60;1.42;;;;;;;;;;4889941;29;20365;-60
2023/07/05 12:07:47;;;;;;;12.13;2.22;;;;;;;;;;4889378;29;20046;-60
2023/07/05 12:10:18;;;;;;;10.05;2.20;;;;;;;;;;4888346;29;20659;-60
2023/07/05 12:12:44;;;;;;;9.23;2.03;;;;;;;;;;4889537;29;20040;-60
2023/07/05 12:15:11;;;;;;;11.10;2.65;;;;;;;;;;4887498;29;20045;-60
2023/07/05 12:17:38;;;;;;;10.20;2.20;;;;;;;;;;4888628;29;20134;-60
2023/07/05 12:20:07;;;;;;;9.60;2.20;;;;;;;;;;4890222;29;20047;-60
2023/07/05 12:22:33;;;;;;;7.18;2.08;;;;;;;;;;4891430;29;20078;-59
2023/07/05 12:24:59;;;;;;;8.85;2.15;;;;;;;;;;4891902;29;20032;-61
2023/07/05 12:27:27;;;;;;;8.90;1.70;;;;;;;;;;4875717;29;20090;-61
2023/07/05 12:29:55;;;;;;;9.73;1.90;;;;;;;;;;4892682;29;21652;-60
2023/07/05 12:32:23;;;;;;;9.02;1.92;;;;;;;;;;4892725;29;20040;-61
2023/07/05 12:35:05;;;;;;;6.47;1.75;;;;;;;;;;4892264;29;20518;-60
2023/07/05 12:37:32;;;;;;;10.60;2.00;;;;;;;;;;4892582;29;20047;-61
2023/07/05 12:40:19;;;;;;;7.25;1.65;;;;;;;;;;4892380;29;20036;-61
2023/07/05 12:42:49;;;;;;;7.80;1.48;;;;;;;;;;4892668;29;20043;-61
2023/07/05 12:45:20;;;;;;;6.78;1.63;;;;;;;;;;4892644;29;20046;-61
2023/07/05 12:47:46;;;;;;;6.95;1.77;;;;;;;;;;4870356;29;20047;-61
2023/07/05 12:50:15;;;;;;;6.40;1.75;;;;;;;;;;4892696;29;20040;-61
2023/07/05 12:52:41;;;;;;;12.50;2.05;;;;;;;;;;4892210;29;20039;-61
2023/07/05 12:55:23;;;;;;;9.15;2.08;;;;;;;;;;4892882;29;20043;-61
2023/07/05 12:57:52;;;;;;;8.10;1.80;;;;;;;;;;4893066;29;21817;-60
2023/07/05 13:00:19;;;;;;;8.43;2.30;;;;;;;;;;4891764;29;20046;-61
2023/07/05 13:02:46;;;;;;;11.68;2.40;;;;;;;;;;4892160;29;20119;-61
2023/07/05 13:05:12;;;;;;;8.38;1.98;;;;;;;;;;4892295;29;20050;-61
2023/07/05 13:07:39;;;;;;;13.48;2.63;;;;;;;;;;4891580;29;20044;-61
2023/07/05 13:10:06;;;;;;;13.00;3.20;;;;;;;;;;4892700;29;20042;-61
2023/07/05 13:12:45;;;;;;;14.38;2.83;;;;;;;;;;4892595;29;20070;-61
2023/07/05 13:15:11;;;;;;;13.90;3.00;;;;;;;;;;4893667;29;20399;-61
2023/07/05 13:17:37;;;;;;;12.98;2.83;;;;;;;;;;4890308;29;20051;-60
2023/07/05 13:20:06;;;;;;;14.45;3.65;;;;;;;;;;4891648;29;20035;-60
2023/07/05 13:22:32;;;;;;;11.98;2.58;;;;;;;;;;4892178;29;20032;-60
2023/07/05 13:24:59;;;;;;;13.15;2.92;;;;;;;;;;4874920;29;21077;-60
2023/07/05 13:27:25;;;;;;;11.02;2.65;;;;;;;;;;4892076;29;20043;-61
2023/07/05 13:29:52;;;;;;;11.90;3.65;;;;;;;;;;4892578;29;20701;-61
2023/07/05 13:32:24;;;;;;;9.02;2.38;;;;;;;;;;4893263;29;20561;-61
2023/07/05 13:34:51;;;;;;;10.52;2.63;;;;;;;;;;4892110;29;20181;-61
2023/07/05 13:37:19;;;;;;;11.75;2.55;;;;;;;;;;4892814;29;20122;-61
2023/07/05 13:39:45;;;;;;;13.30;2.72;;;;;;;;;;4890761;29;20040;-61
2023/07/05 13:42:12;;;;;;;10.07;2.42;;;;;;;;;;4893063;29;21025;-61
2023/07/05 13:44:38;;;;;;;11.68;2.50;;;;;;;;;;4891647;29;20039;-61
2023/07/05 13:47:04;;;;;;;9.65;2.72;;;;;;;;;;4891779;29;20020;-62
2023/07/05 13:49:30;;;;;;;16.65;3.03;;;;;;;;;;4891856;29;22170;-61
2023/07/05 13:51:58;;;;;;;14.13;2.45;;;;;;;;;;4890482;29;20020;-61
2023/07/05 13:54:25;;;;;;;10.30;2.90;;;;;;;;;;4891758;29;20046;-61
2023/07/05 13:56:51;;;;;;;11.10;3.17;;;;;;;;;;4889719;29;20046;-60
2023/07/05 13:59:18;;;;;;;13.43;2.80;;;;;;;;;;4888823;29;21972;-60
2023/07/05 14:01:45;;;;;;;17.55;3.03;;;;;;;;;;4886762;29;20074;-61
2023/07/05 14:04:11;;;;;;;11.85;2.78;;;;;;;;;;4890196;29;20055;-61
2023/07/05 14:06:38;;;;;;;15.13;2.60;;;;;;;;;;4891423;29;20040;-61
2023/07/05 14:09:04;;;;;;;11.63;2.70;;;;;;;;;;4891539;29;20115;-62
2023/07/05 14:11:35;;;;;;;15.13;2.92;;;;;;;;;;4890618;29;20039;-61
2023/07/05 14:14:01;;;;;;;11.80;3.20;;;;;;;;;;4891799;29;20496;-61
2023/07/05 14:16:27;;;;;;;19.48;3.88;;;;;;;;;;4891123;29;20031;-61
2023/07/05 14:18:53;;;;;;;14.05;3.42;;;;;;;;;;4887276;29;20043;-61
2023/07/05 14:21:29;;;;;;;10.55;3.00;;;;;;;;;;4888942;29;20043;-61
2023/07/05 14:23:56;;;;;;;22.65;3.40;;;;;;;;;;4890035;29;20067;-61
2023/07/05 14:26:22;;;;;;;11.98;3.15;;;;;;;;;;4889977;29;20869;-61
2023/07/05 14:28:48;;;;;;;17.27;3.35;;;;;;;;;;4890736;29;20028;-61
2023/07/05 14:31:15;;;;;;;12.93;2.97;;;;;;;;;;4890018;29;20091;-61
2023/07/05 14:33:41;;;;;;;10.35;2.90;;;;;;;;;;4889054;29;20079;-61
2023/07/05 14:36:11;;;;;;;13.95;3.10;;;;;;;;;;4887475;29;20046;-61
2023/07/05 14:38:37;;;;;;;13.57;2.70;;;;;;;;;;4889064;29;20054;-61
2023/07/05 14:41:03;;;;;;;10.18;2.72;;;;;;;;;;4887416;29;20032;-61